Startpagina
METAR-TAF:

METAR-TAF

Vliegvelden :

Amman, Jordanië

breedte: 31-59N, lengte: 035-59E, hoogte: 767 m

Actueel weer

Dit bericht is 40 minuten geleden gemaakt, om 15:00 UTC
Wind 6 kt uit het noordwesten
Temperatuur 14°C
Vochtigheid 58%
Druk 1021 hPa
Zicht: 6000 m
Verspreide wolken op 2500 ft

METAR: OJAM 151500Z 31006KT 6000 SCT025 14/06 Q1021 NOSIG

Tijdstip: 17:40 (15:40 UTC)

Verwachting

Dit bericht is 4 uur en het 50 minuten geleden gemaakt, om 10:50 UTC
Verwachting geldig van 15 om 12 UTC tot 16 om 18 UTC
Wind 10 kt uit het westnoordwesten
Zicht: 6000 m
Gebroken wolken op 3000 ft
Tijdelijke
van 16 om 00 UTC tot 16 om 07 UTC
Wind 2 kt uit variabele richting
Zicht: 3000 m
nevel
Wijzigt naar
van 16 om 08 UTC tot 16 om 10 UTC
Wind 8 kt uit het oostzuidoosten
Zicht: 5000 m
Weinig wolken op 3500 ft
Heiigheid

TAF: OJAM 151050Z 1512/1618 29010KT 6000 BKN030 TEMPO 1600/1607 VRB02KT 3000 BR BECMG 1608/1610 12008KT 5000 HZ FEW035

Waarnemingen en weersverwachtingen van meer dan 4000 vliegvelden (METAR en TAF).

De beschikbare stations zijn de gele en rode punten op de kaart.

Ga met uw muis naar het station om de naam te zien.

Klik dan om waarnemingen en weersverwachtingen te zien.

kaart wijzigen: klik op de groene knoppen met een zwart kruis om in te zoomen, op de groene knop met een streepje om uit te zoomen of op de groene pijlen voor aangrenzende kaarten.


METAR-TAF: